Time;durP1;ratioP1;P1;durP2;ratioP2;P2;SDS_P1;SDS_P2;PMS_P1;PMS_P2;Temp;Humidity;BMP_temperature;BMP_pressure;BME280_temperature;BME280_humidity;BME280_pressure;Samples;Min_cycle;Max_cycle;Signal;HPM_P1;HPM_P2
2023/08/24 00:01:12;;;;;;;1.35;0.82;;;;;;;;;;10319358;28;20133;-84
2023/08/24 00:06:16;;;;;;;1.23;0.93;;;;;;;;;;10315020;28;20047;-83
2023/08/24 00:11:21;;;;;;;0.95;0.70;;;;;;;;;;10289479;28;20066;-83
2023/08/24 00:16:24;;;;;;;3.13;1.02;;;;;;;;;;10300941;28;20070;-83
2023/08/24 00:21:28;;;;;;;1.58;1.08;;;;;;;;;;10289025;28;20058;-84
2023/08/24 00:26:33;;;;;;;1.98;1.10;;;;;;;;;;10305975;28;20162;-84
2023/08/24 00:31:36;;;;;;;2.75;1.10;;;;;;;;;;10278221;28;20055;-84
2023/08/24 00:36:40;;;;;;;1.15;0.88;;;;;;;;;;10277387;28;20057;-83
2023/08/24 00:41:45;;;;;;;1.48;0.98;;;;;;;;;;10280917;28;20082;-82
2023/08/24 00:46:50;;;;;;;2.97;0.93;;;;;;;;;;10292092;28;20122;-82
2023/08/24 00:51:53;;;;;;;1.38;0.75;;;;;;;;;;10286269;28;20488;-81
2023/08/24 00:56:58;;;;;;;1.38;0.98;;;;;;;;;;10297709;28;20074;-82
2023/08/24 01:02:02;;;;;;;1.90;0.70;;;;;;;;;;10283014;23;20142;-82
2023/08/24 01:07:06;;;;;;;1.70;0.80;;;;;;;;;;10256427;28;20045;-82
2023/08/24 01:12:22;;;;;;;1.55;0.90;;;;;;;;;;10220580;28;20090;-79
2023/08/24 01:17:29;;;;;;;0.82;0.60;;;;;;;;;;10238676;28;20052;-80
2023/08/24 01:22:39;;;;;;;2.92;0.95;;;;;;;;;;10231584;28;20132;-79
2023/08/24 01:27:44;;;;;;;1.25;0.70;;;;;;;;;;10226218;28;20063;-79
2023/08/24 01:32:48;;;;;;;3.40;1.00;;;;;;;;;;10225097;29;20051;-80
2023/08/24 01:37:51;;;;;;;1.27;0.73;;;;;;;;;;10224639;28;20106;-80
2023/08/24 01:42:59;;;;;;;1.45;0.70;;;;;;;;;;10244099;28;20485;-80
2023/08/24 01:48:05;;;;;;;1.60;1.00;;;;;;;;;;10243647;28;20137;-80
2023/08/24 01:53:10;;;;;;;2.10;0.68;;;;;;;;;;10224831;28;20046;-80
2023/08/24 01:58:15;;;;;;;1.98;0.80;;;;;;;;;;10222926;28;20126;-80
2023/08/24 02:03:19;;;;;;;1.13;0.50;;;;;;;;;;10221773;29;20066;-80
2023/08/24 02:08:22;;;;;;;0.80;0.60;;;;;;;;;;10222819;28;20146;-80
2023/08/24 02:13:28;;;;;;;1.40;0.80;;;;;;;;;;10222415;29;20362;-80
2023/08/24 02:18:32;;;;;;;1.38;0.63;;;;;;;;;;10221976;28;20130;-80
2023/08/24 02:23:35;;;;;;;1.20;0.60;;;;;;;;;;10240161;28;20638;-80
2023/08/24 02:28:40;;;;;;;1.33;0.73;;;;;;;;;;10223172;28;20044;-80
2023/08/24 02:33:45;;;;;;;1.50;0.77;;;;;;;;;;10217306;28;20146;-80
2023/08/24 02:38:49;;;;;;;1.27;0.70;;;;;;;;;;10239015;28;20122;-80
2023/08/24 02:43:55;;;;;;;1.33;0.85;;;;;;;;;;10222155;29;20079;-80
2023/08/24 02:48:59;;;;;;;1.17;0.70;;;;;;;;;;10222649;28;20055;-80
2023/08/24 02:54:02;;;;;;;1.10;0.60;;;;;;;;;;10236281;28;20457;-80
2023/08/24 02:59:07;;;;;;;1.85;0.88;;;;;;;;;;10223987;28;20051;-80
2023/08/24 03:04:11;;;;;;;0.83;0.60;;;;;;;;;;10229684;29;20047;-80
2023/08/24 03:09:14;;;;;;;2.00;1.02;;;;;;;;;;10224661;28;20107;-80
2023/08/24 03:14:20;;;;;;;1.08;0.80;;;;;;;;;;10237088;28;20405;-85
2023/08/24 03:19:23;;;;;;;0.67;0.67;;;;;;;;;;10240326;28;20051;-83
2023/08/24 03:24:27;;;;;;;1.40;1.00;;;;;;;;;;10222006;28;20097;-83
2023/08/24 03:29:31;;;;;;;1.02;0.80;;;;;;;;;;10239683;28;20145;-82
2023/08/24 03:34:36;;;;;;;2.13;0.80;;;;;;;;;;10243348;28;20119;-82
2023/08/24 03:39:40;;;;;;;0.77;0.63;;;;;;;;;;10231250;29;20512;-84
2023/08/24 03:44:45;;;;;;;1.73;0.95;;;;;;;;;;10247732;28;20257;-83
2023/08/24 03:49:48;;;;;;;1.55;0.95;;;;;;;;;;10243119;28;20161;-84
2023/08/24 03:54:52;;;;;;;1.98;0.60;;;;;;;;;;10232911;29;20051;-87
2023/08/24 03:59:57;;;;;;;1.35;0.85;;;;;;;;;;10240680;28;20093;-80
2023/08/24 04:05:01;;;;;;;1.08;0.60;;;;;;;;;;10246274;28;20087;-80
2023/08/24 04:10:05;;;;;;;1.98;0.57;;;;;;;;;;10261724;28;20055;-83
2023/08/24 04:15:11;;;;;;;2.25;0.80;;;;;;;;;;10261021;28;20487;-82
2023/08/24 04:20:15;;;;;;;0.77;0.70;;;;;;;;;;10249384;28;20063;-84
2023/08/24 04:25:19;;;;;;;1.30;0.80;;;;;;;;;;10242630;28;20417;-85
2023/08/24 04:30:23;;;;;;;3.17;1.52;;;;;;;;;;10228009;29;20508;-85
2023/08/24 04:35:27;;;;;;;2.45;1.00;;;;;;;;;;10241488;28;20254;-83
2023/08/24 04:40:44;;;;;;;2.05;1.23;;;;;;;;;;10237236;28;20051;-86
2023/08/24 04:45:49;;;;;;;2.53;0.93;;;;;;;;;;10237843;28;20167;-84
2023/08/24 04:50:57;;;;;;;1.10;0.73;;;;;;;;;;10246877;28;20039;-83
2023/08/24 04:56:01;;;;;;;2.95;1.10;;;;;;;;;;10243707;28;20051;-82
2023/08/24 05:01:05;;;;;;;1.50;0.90;;;;;;;;;;10247989;28;20106;-84
2023/08/24 05:06:14;;;;;;;2.38;0.88;;;;;;;;;;10247844;28;20528;-87
2023/08/24 05:11:30;;;;;;;1.58;0.88;;;;;;;;;;10248153;28;20122;-84
2023/08/24 05:16:38;;;;;;;1.13;0.90;;;;;;;;;;10237358;28;20055;-86
2023/08/24 05:22:02;;;;;;;2.63;1.20;;;;;;;;;;10251058;28;20043;-83
2023/08/24 05:27:05;;;;;;;1.45;1.00;;;;;;;;;;10235332;28;20047;-86
2023/08/24 05:32:16;;;;;;;1.25;1.10;;;;;;;;;;10221492;28;20050;-83
2023/08/24 05:37:19;;;;;;;1.15;0.90;;;;;;;;;;10245054;28;20107;-82
2023/08/24 05:42:23;;;;;;;2.42;1.10;;;;;;;;;;10250526;28;20055;-83
2023/08/24 05:47:28;;;;;;;1.42;0.93;;;;;;;;;;10227319;28;20051;-86
2023/08/24 05:52:36;;;;;;;1.45;0.90;;;;;;;;;;10227152;29;20043;-83
2023/08/24 05:57:44;;;;;;;1.15;1.00;;;;;;;;;;10244238;28;20107;-87
2023/08/24 06:02:51;;;;;;;0.95;0.70;;;;;;;;;;10243650;28;20051;-86
2023/08/24 06:07:54;;;;;;;1.70;1.00;;;;;;;;;;10240171;28;20051;-83
2023/08/24 06:12:58;;;;;;;1.98;0.93;;;;;;;;;;10236007;28;20047;-83
2023/08/24 06:18:05;;;;;;;1.83;1.00;;;;;;;;;;10239999;28;20071;-84
2023/08/24 06:23:09;;;;;;;0.82;0.70;;;;;;;;;;10241133;28;20497;-86
2023/08/24 06:33:35;;;;;;;1.42;0.82;;;;;;;;;;10233555;28;20126;-85
2023/08/24 06:38:38;;;;;;;2.20;0.77;;;;;;;;;;10234799;28;20110;-84
2023/08/24 06:43:42;;;;;;;2.10;1.17;;;;;;;;;;10233665;28;20452;-84
2023/08/24 06:56:03;;;;;;;1.27;0.70;;;;;;;;;;10233525;28;20047;-84
2023/08/24 07:06:28;;;;;;;2.03;1.00;;;;;;;;;;10150118;29;20463;-83
2023/08/24 07:11:32;;;;;;;1.08;0.90;;;;;;;;;;10241995;28;20142;-82
2023/08/24 07:16:35;;;;;;;0.95;0.80;;;;;;;;;;10233374;28;20546;-82
2023/08/24 07:21:40;;;;;;;0.75;0.63;;;;;;;;;;10223964;28;20149;-84
2023/08/24 07:26:45;;;;;;;2.10;1.20;;;;;;;;;;10232476;28;20138;-83
2023/08/24 07:31:48;;;;;;;2.75;1.40;;;;;;;;;;10224474;28;20063;-84
2023/08/24 07:36:59;;;;;;;2.80;1.10;;;;;;;;;;10237488;28;20055;-84
2023/08/24 07:42:04;;;;;;;1.02;0.90;;;;;;;;;;10239782;28;20787;-84
2023/08/24 07:47:08;;;;;;;1.10;0.80;;;;;;;;;;10215788;28;20071;-84
2023/08/24 07:52:16;;;;;;;1.50;1.10;;;;;;;;;;10214591;28;20146;-84
2023/08/24 07:57:19;;;;;;;2.60;0.88;;;;;;;;;;10239429;28;20288;-84
2023/08/24 08:02:23;;;;;;;1.45;0.93;;;;;;;;;;10207652;28;20142;-84
2023/08/24 08:07:28;;;;;;;1.60;0.90;;;;;;;;;;10263194;28;20074;-84
2023/08/24 08:12:32;;;;;;;1.20;0.83;;;;;;;;;;10268150;28;20058;-84
2023/08/24 08:17:37;;;;;;;1.52;1.10;;;;;;;;;;10257235;28;20777;-84
2023/08/24 08:22:42;;;;;;;0.87;0.87;;;;;;;;;;10254513;28;20050;-84
2023/08/24 08:27:45;;;;;;;2.47;1.20;;;;;;;;;;10260806;28;20109;-83
2023/08/24 08:32:52;;;;;;;;;;;;;;;;;;10270860;28;20523;-84
2023/08/24 08:37:56;;;;;;;1.58;1.00;;;;;;;;;;10252380;28;19926;-84
2023/08/24 08:43:00;;;;;;;1.13;0.75;;;;;;;;;;10275481;28;20607;-84
2023/08/24 08:48:05;;;;;;;1.88;1.10;;;;;;;;;;10277582;28;20159;-84
2023/08/24 08:53:09;;;;;;;1.20;1.10;;;;;;;;;;10272399;28;20078;-84
2023/08/24 08:58:14;;;;;;;1.80;1.00;;;;;;;;;;10260505;28;20569;-84
2023/08/24 09:03:19;;;;;;;1.65;1.10;;;;;;;;;;10260204;28;20428;-84
2023/08/24 09:08:27;;;;;;;1.00;0.90;;;;;;;;;;10285602;28;20153;-84
2023/08/24 09:13:32;;;;;;;1.13;0.70;;;;;;;;;;10261102;28;20077;-83
2023/08/24 09:18:37;;;;;;;0.98;0.82;;;;;;;;;;10279850;28;20142;-84
2023/08/24 09:23:45;;;;;;;2.10;1.05;;;;;;;;;;10259529;28;20047;-84
2023/08/24 09:28:51;;;;;;;0.85;0.70;;;;;;;;;;10272381;28;20051;-85
2023/08/24 09:34:02;;;;;;;1.85;0.98;;;;;;;;;;10275912;28;20046;-84
2023/08/24 09:39:17;;;;;;;1.20;0.85;;;;;;;;;;10259586;28;20057;-85
2023/08/24 09:44:21;;;;;;;1.75;0.73;;;;;;;;;;10276093;28;20058;-84
2023/08/24 09:49:26;;;;;;;0.90;0.60;;;;;;;;;;10260550;28;20503;-83
2023/08/24 09:54:36;;;;;;;2.30;1.08;;;;;;;;;;10282968;28;20063;-83
2023/08/24 09:59:43;;;;;;;0.93;0.75;;;;;;;;;;10253256;28;20055;-84
2023/08/24 10:04:48;;;;;;;1.17;0.75;;;;;;;;;;10253537;28;20138;-84
2023/08/24 10:09:58;;;;;;;0.98;0.88;;;;;;;;;;10273636;28;20417;-84
2023/08/24 10:15:03;;;;;;;2.13;0.63;;;;;;;;;;10256505;28;20054;-84
2023/08/24 10:20:10;;;;;;;1.00;0.80;;;;;;;;;;10272733;28;20065;-84
2023/08/24 10:25:18;;;;;;;1.13;0.85;;;;;;;;;;10257766;28;20054;-83
2023/08/24 10:30:22;;;;;;;1.20;0.80;;;;;;;;;;10255705;28;20047;-83
2023/08/24 10:35:26;;;;;;;1.25;0.90;;;;;;;;;;10251878;28;20141;-83
2023/08/24 10:40:35;;;;;;;2.13;0.90;;;;;;;;;;10257427;28;20137;-84
2023/08/24 10:45:58;;;;;;;2.20;0.90;;;;;;;;;;10274066;28;20050;-84
2023/08/24 10:51:22;;;;;;;0.98;0.80;;;;;;;;;;10256361;28;20070;-84
2023/08/24 10:56:38;;;;;;;1.20;0.98;;;;;;;;;;10274458;28;20046;-83
2023/08/24 11:01:42;;;;;;;1.23;0.70;;;;;;;;;;10254212;28;20423;-84
2023/08/24 11:06:53;;;;;;;2.08;0.80;;;;;;;;;;10276317;28;20055;-83
2023/08/24 11:12:00;;;;;;;1.23;0.95;;;;;;;;;;10262033;28;20118;-83
2023/08/24 11:17:19;;;;;;;1.50;1.20;;;;;;;;;;10261322;28;20040;-83
2023/08/24 11:22:22;;;;;;;1.38;0.95;;;;;;;;;;10264127;28;20138;-84
2023/08/24 11:27:28;;;;;;;1.20;0.90;;;;;;;;;;10268322;28;20146;-84
2023/08/24 11:32:32;;;;;;;1.83;1.08;;;;;;;;;;10281659;28;20102;-84
2023/08/24 11:37:35;;;;;;;1.40;1.02;;;;;;;;;;10264650;28;20444;-84
2023/08/24 11:42:40;;;;;;;1.98;0.95;;;;;;;;;;10256595;28;20142;-84
2023/08/24 11:47:44;;;;;;;3.08;1.40;;;;;;;;;;10264170;28;20050;-84
2023/08/24 11:52:48;;;;;;;1.25;0.88;;;;;;;;;;10279943;28;20138;-84
2023/08/24 11:57:53;;;;;;;2.90;1.02;;;;;;;;;;10268161;28;20535;-84
2023/08/24 12:02:58;;;;;;;;;;;;;;;;;;10264716;28;20043;-84
2023/08/24 12:08:01;;;;;;;0.90;0.70;;;;;;;;;;10264389;28;19922;-84
2023/08/24 12:13:07;;;;;;;1.73;1.10;;;;;;;;;;10273257;28;20530;-84
2023/08/24 12:18:12;;;;;;;1.58;0.98;;;;;;;;;;10264913;28;20537;-84
2023/08/24 12:23:15;;;;;;;1.53;0.90;;;;;;;;;;10258344;28;20568;-84
2023/08/24 12:28:21;;;;;;;1.50;0.90;;;;;;;;;;10261552;28;20318;-84
2023/08/24 12:33:26;;;;;;;2.10;1.58;;;;;;;;;;10270083;28;20481;-84
2023/08/24 12:38:29;;;;;;;1.70;1.02;;;;;;;;;;10279184;28;20447;-86
2023/08/24 12:43:33;;;;;;;1.23;1.10;;;;;;;;;;10262713;28;20155;-85
2023/08/24 12:48:37;;;;;;;1.70;1.23;;;;;;;;;;10264994;28;20268;-85
2023/08/24 12:53:40;;;;;;;2.10;1.15;;;;;;;;;;10254681;28;20125;-87
2023/08/24 12:58:45;;;;;;;1.17;0.95;;;;;;;;;;10255982;28;20094;-87
2023/08/24 13:03:48;;;;;;;1.70;1.42;;;;;;;;;;10269289;28;20149;-86
2023/08/24 13:08:53;;;;;;;1.80;1.13;;;;;;;;;;10255944;28;20133;-87
2023/08/24 13:13:58;;;;;;;2.95;1.38;;;;;;;;;;10261568;28;20516;-86
2023/08/24 13:19:02;;;;;;;2.55;1.55;;;;;;;;;;10262559;28;20168;-85
2023/08/24 13:24:06;;;;;;;2.25;1.10;;;;;;;;;;10277901;28;20513;-87
2023/08/24 13:29:11;;;;;;;2.03;1.52;;;;;;;;;;10261707;28;20126;-86
2023/08/24 13:34:15;;;;;;;3.88;2.28;;;;;;;;;;10255650;28;20055;-86
2023/08/24 13:39:18;;;;;;;2.80;1.60;;;;;;;;;;10274962;28;20623;-85
2023/08/24 13:44:23;;;;;;;2.67;1.50;;;;;;;;;;10262836;28;20154;-85
2023/08/24 13:49:26;;;;;;;1.80;1.30;;;;;;;;;;10256788;28;20549;-86
2023/08/24 13:54:39;;;;;;;2.17;1.10;;;;;;;;;;10277823;28;20221;-85
2023/08/24 13:59:44;;;;;;;1.50;1.10;;;;;;;;;;10278973;28;20070;-86
2023/08/24 14:04:48;;;;;;;1.83;1.23;;;;;;;;;;10271383;28;20058;-85
2023/08/24 14:09:52;;;;;;;1.75;1.30;;;;;;;;;;10269378;28;20046;-85
2023/08/24 14:15:08;;;;;;;1.38;1.00;;;;;;;;;;10273925;28;20078;-86
2023/08/24 14:20:14;;;;;;;2.38;1.08;;;;;;;;;;10247906;28;20038;-86
2023/08/24 14:25:18;;;;;;;4.53;1.17;;;;;;;;;;10277967;28;20371;-85
2023/08/24 14:30:23;;;;;;;2.22;1.38;;;;;;;;;;10269465;28;20542;-86
2023/08/24 14:35:27;;;;;;;3.85;1.90;;;;;;;;;;10258832;28;20508;-86
2023/08/24 14:40:30;;;;;;;6.95;2.47;;;;;;;;;;10267147;28;20055;-86
2023/08/24 14:45:35;;;;;;;2.13;1.38;;;;;;;;;;10258920;28;20078;-85
2023/08/24 14:50:39;;;;;;;2.77;1.57;;;;;;;;;;10259191;28;20057;-85
2023/08/24 14:55:42;;;;;;;1.33;1.02;;;;;;;;;;10259321;28;20154;-84
2023/08/24 15:00:48;;;;;;;2.55;1.50;;;;;;;;;;10251006;28;20398;-86
2023/08/24 15:05:58;;;;;;;;;;;;;;;;;;10265815;28;20179;-85
2023/08/24 15:11:03;;;;;;;2.72;1.40;;;;;;;;;;10276488;28;20013;-87
2023/08/24 15:16:09;;;;;;;2.17;0.93;;;;;;;;;;10276643;28;20141;-85
2023/08/24 15:21:14;;;;;;;2.72;1.10;;;;;;;;;;10247647;28;20043;-87
2023/08/24 15:26:18;;;;;;;2.27;1.30;;;;;;;;;;10264060;28;20110;-86
2023/08/24 15:31:23;;;;;;;1.23;1.10;;;;;;;;;;10257432;28;20063;-87
2023/08/24 15:36:26;;;;;;;0.97;0.80;;;;;;;;;;10249765;28;20395;-86
2023/08/24 15:41:30;;;;;;;2.22;1.50;;;;;;;;;;10273088;28;20554;-85
2023/08/24 15:46:34;;;;;;;3.35;1.92;;;;;;;;;;10261390;28;20061;-86
2023/08/24 15:51:38;;;;;;;3.17;1.40;;;;;;;;;;10260849;28;20055;-87
2023/08/24 15:56:44;;;;;;;1.95;1.58;;;;;;;;;;10258208;28;20043;-89
2023/08/24 16:01:53;;;;;;;2.13;1.30;;;;;;;;;;10268825;28;20134;-86
2023/08/24 16:07:00;;;;;;;2.20;1.50;;;;;;;;;;10254836;28;20358;-87
2023/08/24 16:12:04;;;;;;;1.98;1.00;;;;;;;;;;10267143;28;20502;-87
2023/08/24 16:17:09;;;;;;;1.73;1.10;;;;;;;;;;10227833;28;20075;-87
2023/08/24 16:22:12;;;;;;;1.93;1.30;;;;;;;;;;10308778;28;20050;-87
2023/08/24 16:27:21;;;;;;;2.58;1.30;;;;;;;;;;10339087;28;20065;-89
2023/08/24 16:32:28;;;;;;;3.67;1.20;;;;;;;;;;10336434;28;20088;-89
2023/08/24 16:37:39;;;;;;;3.83;1.33;;;;;;;;;;10336981;28;20050;-87
2023/08/24 16:42:44;;;;;;;1.40;1.20;;;;;;;;;;10358236;28;20081;-85
2023/08/24 16:47:52;;;;;;;1.50;0.98;;;;;;;;;;10334323;28;20108;-85
2023/08/24 16:52:58;;;;;;;2.70;1.23;;;;;;;;;;10335441;28;20128;-85
2023/08/24 16:58:02;;;;;;;2.75;1.30;;;;;;;;;;10329694;28;20073;-85
2023/08/24 17:03:09;;;;;;;1.42;1.02;;;;;;;;;;10337198;28;20533;-85
2023/08/24 17:08:21;;;;;;;2.25;1.30;;;;;;;;;;10345101;28;20053;-85
2023/08/24 17:13:27;;;;;;;3.22;1.40;;;;;;;;;;10334757;28;20499;-85
2023/08/24 17:18:32;;;;;;;1.70;1.40;;;;;;;;;;10327788;28;20060;-85
2023/08/24 17:23:39;;;;;;;2.95;1.42;;;;;;;;;;10338801;28;20065;-84
2023/08/24 17:28:50;;;;;;;1.67;1.13;;;;;;;;;;10348017;28;20053;-85
2023/08/24 17:33:57;;;;;;;2.20;1.25;;;;;;;;;;10355747;28;20050;-86
2023/08/24 17:39:07;;;;;;;2.83;1.63;;;;;;;;;;10346346;28;20053;-86
2023/08/24 17:44:14;;;;;;;3.80;1.50;;;;;;;;;;10345561;28;20050;-86
2023/08/24 17:49:24;;;;;;;2.67;1.35;;;;;;;;;;10324987;28;20187;-87
2023/08/24 17:54:29;;;;;;;1.77;1.23;;;;;;;;;;10349706;28;20061;-90
2023/08/24 17:59:38;;;;;;;3.13;1.35;;;;;;;;;;10338025;28;20054;-87
2023/08/24 18:04:52;;;;;;;1.65;0.90;;;;;;;;;;10335708;28;20076;-86
2023/08/24 18:09:57;;;;;;;1.33;1.00;;;;;;;;;;10351671;28;20074;-87
2023/08/24 18:15:02;;;;;;;2.42;1.10;;;;;;;;;;10342435;28;20408;-87
2023/08/24 18:20:09;;;;;;;1.30;0.85;;;;;;;;;;10347326;28;20499;-89
2023/08/24 18:25:16;;;;;;;1.10;0.85;;;;;;;;;;10347650;28;20061;-87
2023/08/24 18:30:28;;;;;;;0.93;0.75;;;;;;;;;;10336492;28;20064;-87
2023/08/24 18:35:38;;;;;;;1.75;1.33;;;;;;;;;;10340587;28;20482;-87
2023/08/24 18:40:52;;;;;;;1.30;0.80;;;;;;;;;;10352386;28;20053;-88
2023/08/24 18:46:02;;;;;;;2.28;1.15;;;;;;;;;;10326395;28;20053;-88
2023/08/24 18:51:09;;;;;;;1.17;1.00;;;;;;;;;;10330983;28;20069;-85
2023/08/24 18:56:15;;;;;;;1.55;1.08;;;;;;;;;;10331267;28;20084;-85
2023/08/24 19:01:25;;;;;;;1.95;0.93;;;;;;;;;;10334841;28;20046;-85
2023/08/24 19:06:36;;;;;;;1.60;0.90;;;;;;;;;;10339441;28;20050;-85
2023/08/24 19:11:44;;;;;;;3.42;1.17;;;;;;;;;;10330141;28;20073;-84
2023/08/24 19:16:50;;;;;;;2.45;1.10;;;;;;;;;;10310385;28;20050;-85
2023/08/24 19:21:58;;;;;;;1.63;1.20;;;;;;;;;;10331548;28;20364;-85
2023/08/24 19:27:07;;;;;;;1.98;1.23;;;;;;;;;;10330170;28;20076;-85
2023/08/24 19:32:10;;;;;;;2.83;1.40;;;;;;;;;;10286664;28;97812;-85
2023/08/24 19:37:21;;;;;;;1.83;1.40;;;;;;;;;;10192113;28;1574098;-84
2023/08/24 19:42:29;;;;;;;2.03;1.00;;;;;;;;;;10300360;28;20043;-84
2023/08/24 19:47:33;;;;;;;1.77;1.42;;;;;;;;;;10314844;28;20804;-85
2023/08/24 19:52:42;;;;;;;;;;;;;;;;;;10288524;28;20636;-85
2023/08/24 19:57:48;;;;;;;1.30;0.95;;;;;;;;;;10285487;28;19925;-84
2023/08/24 20:02:55;;;;;;;1.33;0.98;;;;;;;;;;10314992;28;20038;-84
2023/08/24 20:08:04;;;;;;;2.42;1.27;;;;;;;;;;10302303;28;20148;-86
2023/08/24 20:13:12;;;;;;;1.40;1.20;;;;;;;;;;10321399;28;20058;-87
2023/08/24 20:18:18;;;;;;;2.30;1.20;;;;;;;;;;10309599;28;20058;-84
2023/08/24 20:23:30;;;;;;;2.50;1.10;;;;;;;;;;10306245;28;20058;-86
2023/08/24 20:28:37;;;;;;;1.77;1.23;;;;;;;;;;10315590;28;20058;-84
2023/08/24 20:33:46;;;;;;;1.98;1.30;;;;;;;;;;10305541;28;20054;-85
2023/08/24 20:38:53;;;;;;;2.88;1.13;;;;;;;;;;10299599;28;20046;-84
2023/08/24 20:44:02;;;;;;;1.20;1.10;;;;;;;;;;10311928;28;20050;-84
2023/08/24 20:49:07;;;;;;;2.92;1.30;;;;;;;;;;10300377;28;20051;-86
2023/08/24 20:54:19;;;;;;;1.50;1.23;;;;;;;;;;10309712;28;20129;-88
2023/08/24 20:59:23;;;;;;;3.17;1.35;;;;;;;;;;10283618;28;20074;-85
2023/08/24 21:04:28;;;;;;;1.90;1.20;;;;;;;;;;10303046;28;20055;-86
2023/08/24 21:09:34;;;;;;;1.85;1.25;;;;;;;;;;10304268;28;20062;-86
2023/08/24 21:14:40;;;;;;;2.10;1.17;;;;;;;;;;10317158;28;20054;-86
2023/08/24 21:19:46;;;;;;;5.45;1.05;;;;;;;;;;10318199;28;20050;-86
2023/08/24 21:24:50;;;;;;;;;;;;;;;;;;10303597;28;20050;-88
2023/08/24 21:29:54;;;;;;;1.88;1.20;;;;;;;;;;10297374;28;19926;-89
2023/08/24 21:34:58;;;;;;;1.65;1.00;;;;;;;;;;10296336;28;20051;-87
2023/08/24 21:40:03;;;;;;;2.38;1.08;;;;;;;;;;10313917;28;20054;-85
2023/08/24 21:45:07;;;;;;;1.40;1.10;;;;;;;;;;10292854;28;20042;-87
2023/08/24 21:50:11;;;;;;;1.65;0.93;;;;;;;;;;10303469;28;20042;-90
2023/08/24 21:55:16;;;;;;;2.25;1.25;;;;;;;;;;10321696;28;20132;-85
2023/08/24 22:00:19;;;;;;;1.80;1.42;;;;;;;;;;10303952;28;20069;-90
2023/08/24 22:05:23;;;;;;;1.63;1.10;;;;;;;;;;10320966;28;20042;-86
2023/08/24 22:10:28;;;;;;;1.55;1.15;;;;;;;;;;10296487;28;20129;-86
2023/08/24 22:15:31;;;;;;;3.17;1.50;;;;;;;;;;10318230;28;20061;-86
2023/08/24 22:20:35;;;;;;;1.48;1.08;;;;;;;;;;10302278;28;20050;-86
2023/08/24 22:25:40;;;;;;;1.90;1.35;;;;;;;;;;10320639;28;20179;-90
2023/08/24 22:30:44;;;;;;;1.30;1.05;;;;;;;;;;10302058;28;20093;-88
2023/08/24 22:35:47;;;;;;;1.63;1.00;;;;;;;;;;10319896;28;20046;-89
2023/08/24 22:40:52;;;;;;;1.85;1.10;;;;;;;;;;10303245;28;20065;-85
2023/08/24 22:45:57;;;;;;;2.05;1.15;;;;;;;;;;10298851;28;20070;-85
2023/08/24 22:51:01;;;;;;;2.08;1.40;;;;;;;;;;10320072;28;20047;-87
2023/08/24 22:56:06;;;;;;;1.45;1.10;;;;;;;;;;10302083;28;20129;-87
2023/08/24 23:01:15;;;;;;;1.83;1.13;;;;;;;;;;10318744;28;20575;-86
2023/08/24 23:06:22;;;;;;;2.05;1.05;;;;;;;;;;10302744;28;20108;-90
2023/08/24 23:11:27;;;;;;;2.38;1.10;;;;;;;;;;10300278;28;20054;-89
2023/08/24 23:16:30;;;;;;;2.20;1.17;;;;;;;;;;10319150;28;20576;-86
2023/08/24 23:21:33;;;;;;;1.38;0.95;;;;;;;;;;10311637;28;20078;-86
2023/08/24 23:26:38;;;;;;;1.40;1.20;;;;;;;;;;10290464;28;20288;-83
2023/08/24 23:31:43;;;;;;;1.80;1.08;;;;;;;;;;10303695;28;20141;-83
2023/08/24 23:36:46;;;;;;;1.10;0.93;;;;;;;;;;10295186;28;20220;-83
2023/08/24 23:41:51;;;;;;;1.35;1.10;;;;;;;;;;10312133;28;20519;-83
2023/08/24 23:46:54;;;;;;;3.60;1.23;;;;;;;;;;10294296;28;20054;-83
2023/08/24 23:51:58;;;;;;;1.83;1.13;;;;;;;;;;10294869;28;20050;-83
2023/08/24 23:57:03;;;;;;;3.65;0.90;;;;;;;;;;10295414;28;20042;-84
